createdAt,value
2017-02-20T00:00:45.418Z,1018.56
2017-02-20T00:01:54.892Z,1018.52
2017-02-20T00:03:03.607Z,1018.58
2017-02-20T00:04:13.069Z,1018.54
2017-02-20T00:05:22.911Z,1018.53
2017-02-20T00:06:32.357Z,1018.55
2017-02-20T00:07:41.432Z,1018.55
2017-02-20T00:08:50.528Z,1018.56
2017-02-20T00:10:00.370Z,1018.55
2017-02-20T00:11:09.441Z,1018.52
2017-02-20T00:12:18.914Z,1018.51
2017-02-20T00:13:28.383Z,1018.52
2017-02-20T00:14:38.208Z,1018.51
2017-02-20T00:15:47.662Z,1018.46
2017-02-20T00:16:56.736Z,1018.42
2017-02-20T00:18:06.197Z,1018.45
2017-02-20T00:19:15.634Z,1018.43
2017-02-20T00:20:25.087Z,1018.43
2017-02-20T00:21:34.347Z,1018.4
2017-02-20T00:22:43.806Z,1018.4
2017-02-20T00:23:52.872Z,1018.34
2017-02-20T00:25:01.982Z,1018.34
2017-02-20T00:26:11.441Z,1018.31
2017-02-20T00:27:20.123Z,1018.3
2017-02-20T00:28:29.190Z,1018.28
2017-02-20T00:29:37.867Z,1018.26
2017-02-20T00:30:46.937Z,1018.25
2017-02-20T00:31:56.763Z,1018.21
2017-02-20T00:33:06.981Z,1018.2
2017-02-20T00:34:15.675Z,1018.24
2017-02-20T00:35:25.526Z,1018.23
2017-02-20T00:36:34.208Z,1018.23
2017-02-20T00:37:43.652Z,1018.13
2017-02-20T00:38:53.511Z,1018.22
2017-02-20T00:40:02.973Z,1018.2
2017-02-20T00:41:11.675Z,1018.15
2017-02-20T00:42:21.527Z,1018.2
2017-02-20T00:43:31.777Z,1018.17
2017-02-20T00:44:41.600Z,1018.17
2017-02-20T00:45:50.283Z,1018.13
2017-02-20T00:46:59.354Z,1018.16
2017-02-20T00:48:08.443Z,1018.17
2017-02-20T00:49:17.897Z,1018.12
2017-02-20T00:50:27.728Z,1018.13
2017-02-20T00:51:36.798Z,1018.08
2017-02-20T00:52:46.635Z,1018.09
2017-02-20T00:53:55.697Z,1018.05
2017-02-20T00:55:05.539Z,1018.05
2017-02-20T00:56:14.611Z,1018.04
2017-02-20T00:57:24.447Z,1018.01
2017-02-20T00:58:33.532Z,1018.02
2017-02-20T00:59:42.620Z,1017.99
2017-02-20T01:00:51.692Z,1018.02
2017-02-20T01:02:00.755Z,1018.02
2017-02-20T01:03:10.609Z,1018
2017-02-20T01:04:20.084Z,1017.98
2017-02-20T01:05:28.780Z,1017.94
2017-02-20T01:06:37.853Z,1017.92
2017-02-20T01:07:47.291Z,1017.91
2017-02-20T01:08:56.751Z,1017.91
2017-02-20T01:10:06.976Z,1017.89
2017-02-20T01:11:16.061Z,1017.86
2017-02-20T01:12:25.507Z,1017.84
2017-02-20T01:13:35.723Z,1017.89
2017-02-20T01:14:45.942Z,1017.8
2017-02-20T01:15:55.792Z,1017.83
2017-02-20T01:17:05.246Z,1017.79
2017-02-20T01:18:15.098Z,1017.76
2017-02-20T01:19:23.809Z,1017.77
2017-02-20T01:20:32.886Z,1017.69
2017-02-20T01:21:42.743Z,1017.65
2017-02-20T01:22:52.953Z,1017.64
2017-02-20T01:24:02.013Z,1017.64
2017-02-20T01:25:11.471Z,1017.58
2017-02-20T01:26:20.549Z,1017.55
2017-02-20T01:27:29.637Z,1017.55
2017-02-20T01:28:39.154Z,1017.58
2017-02-20T01:29:48.213Z,1017.55
2017-02-20T01:30:57.289Z,1017.57
2017-02-20T01:32:07.121Z,1017.53
2017-02-20T01:33:16.572Z,1017.56
2017-02-20T01:34:26.029Z,1017.53
2017-02-20T01:35:35.475Z,1017.54
2017-02-20T01:36:44.924Z,1017.51
2017-02-20T01:37:53.998Z,1017.52
2017-02-20T01:39:03.456Z,1017.53
2017-02-20T01:40:12.528Z,1017.49
2017-02-20T01:41:21.241Z,1017.46
2017-02-20T01:42:30.313Z,1017.44
2017-02-20T01:43:39.018Z,1017.43
2017-02-20T01:44:48.092Z,1017.43
2017-02-20T01:45:57.154Z,1017.41
2017-02-20T01:47:06.612Z,1017.46
2017-02-20T01:48:16.066Z,1017.45
2017-02-20T01:49:25.925Z,1017.42
2017-02-20T01:50:34.632Z,1017.38
2017-02-20T01:51:43.707Z,1017.41
2017-02-20T01:52:53.163Z,1017.37
2017-02-20T01:54:02.228Z,1017.33
2017-02-20T01:55:12.082Z,1017.37
2017-02-20T01:56:21.172Z,1017.34
2017-02-20T01:57:30.614Z,1017.28
2017-02-20T01:58:40.078Z,1017.25
2017-02-20T01:59:49.139Z,1017.2
2017-02-20T02:00:58.618Z,1017.25
2017-02-20T02:02:08.076Z,1017.23
2017-02-20T02:03:17.528Z,1017.19
2017-02-20T02:04:26.216Z,1017.14
2017-02-20T02:05:34.904Z,1017.17
2017-02-20T02:06:44.372Z,1017.16
2017-02-20T02:07:53.819Z,1017.12
2017-02-20T02:09:03.275Z,1017.1
2017-02-20T02:10:12.339Z,1017.1
2017-02-20T02:11:21.400Z,1017.08
2017-02-20T02:12:30.124Z,1017.08
2017-02-20T02:13:39.189Z,1017.07
2017-02-20T02:14:48.635Z,1017.05
2017-02-20T02:15:58.079Z,1017.1
2017-02-20T02:17:07.159Z,1017.12
2017-02-20T02:18:16.619Z,1017.13
2017-02-20T02:19:25.326Z,1017.13
2017-02-20T02:20:34.024Z,1017.17
2017-02-20T02:21:43.107Z,1017.13
2017-02-20T02:22:52.556Z,1017.07
2017-02-20T02:24:02.005Z,1017.06
2017-02-20T02:25:11.885Z,1017.06
2017-02-20T02:26:21.730Z,1017.03
2017-02-20T02:27:31.199Z,1017.03
2017-02-20T02:28:41.034Z,1017.02
2017-02-20T02:29:50.105Z,1017.02
2017-02-20T02:30:59.959Z,1017.05
2017-02-20T02:32:10.628Z,1016.96
2017-02-20T02:33:20.092Z,1016.97
2017-02-20T02:34:30.323Z,1016.91
2017-02-20T02:35:39.779Z,1016.95
2017-02-20T02:36:49.224Z,1016.92
2017-02-20T02:37:58.685Z,1016.89
2017-02-20T02:39:08.136Z,1016.93
2017-02-20T02:40:17.588Z,1016.87
2017-02-20T02:41:26.668Z,1016.86
2017-02-20T02:42:35.734Z,1016.86
2017-02-20T02:43:44.806Z,1016.86
2017-02-20T02:44:54.287Z,1016.79
2017-02-20T02:46:03.764Z,1016.82
2017-02-20T02:47:12.853Z,1016.78
2017-02-20T02:48:22.311Z,1016.77
2017-02-20T02:49:31.766Z,1016.79
2017-02-20T02:50:40.829Z,1016.67
2017-02-20T02:51:50.653Z,1016.7
2017-02-20T02:53:00.128Z,1016.65
2017-02-20T02:54:09.569Z,1016.62
2017-02-20T02:55:18.629Z,1016.59
2017-02-20T02:56:28.080Z,1016.49
2017-02-20T02:57:37.157Z,1016.57
2017-02-20T02:58:46.233Z,1016.57
2017-02-20T02:59:55.295Z,1016.54
2017-02-20T03:01:05.164Z,1016.56
2017-02-20T03:02:15.031Z,1016.59
2017-02-20T03:03:24.099Z,1016.57
2017-02-20T03:04:32.788Z,1016.57
2017-02-20T03:05:41.851Z,1016.61
2017-02-20T03:06:52.054Z,1016.57
2017-02-20T03:08:01.131Z,1016.53
2017-02-20T03:09:09.816Z,1016.56
2017-02-20T03:10:19.282Z,1016.61
2017-02-20T03:11:28.730Z,1016.64
2017-02-20T03:12:38.589Z,1016.58
2017-02-20T03:13:47.658Z,1016.61
2017-02-20T03:14:56.354Z,1016.58
2017-02-20T03:16:05.419Z,1016.61
2017-02-20T03:17:14.878Z,1016.67
2017-02-20T03:18:23.949Z,1016.69
2017-02-20T03:19:33.403Z,1016.72
2017-02-20T03:20:42.468Z,1016.68
2017-02-20T03:21:51.907Z,1016.74
2017-02-20T03:23:00.972Z,1016.73
2017-02-20T03:24:10.040Z,1016.78
2017-02-20T03:25:19.116Z,1016.78
2017-02-20T03:26:28.181Z,1016.78
2017-02-20T03:27:38.034Z,1016.75
2017-02-20T03:28:47.517Z,1016.77
2017-02-20T03:29:56.959Z,1016.78
2017-02-20T03:31:06.074Z,1016.77
2017-02-20T03:32:16.298Z,1016.78
2017-02-20T03:33:25.366Z,1016.85
2017-02-20T03:34:34.074Z,1016.85
2017-02-20T03:35:43.918Z,1016.87
2017-02-20T03:36:52.987Z,1016.86
2017-02-20T03:38:02.433Z,1016.88
2017-02-20T03:39:11.873Z,1016.92
2017-02-20T03:40:20.928Z,1016.85
2017-02-20T03:41:31.141Z,1016.9
2017-02-20T03:42:40.199Z,1016.94
2017-02-20T03:43:49.641Z,1016.96
2017-02-20T03:44:58.761Z,1016.97
2017-02-20T03:46:07.831Z,1016.98
2017-02-20T03:47:17.312Z,1016.97
2017-02-20T03:48:26.389Z,1017.01
2017-02-20T03:49:35.840Z,1017.02
2017-02-20T03:50:44.915Z,1017
2017-02-20T03:51:54.386Z,1017.01
2017-02-20T03:53:03.480Z,1017.02
2017-02-20T03:54:12.940Z,1017.01
2017-02-20T03:55:22.807Z,1017.01
2017-02-20T03:56:32.270Z,1016.95
2017-02-20T03:57:41.772Z,1016.93
2017-02-20T03:58:51.226Z,1016.88
2017-02-20T04:00:00.680Z,1016.89
2017-02-20T04:01:09.757Z,1016.79
2017-02-20T04:02:18.824Z,1016.79
2017-02-20T04:03:27.891Z,1016.71
2017-02-20T04:04:36.583Z,1016.72
2017-02-20T04:05:45.643Z,1016.74
2017-02-20T04:06:55.138Z,1016.71
2017-02-20T04:08:05.360Z,1016.7
2017-02-20T04:09:15.202Z,1016.73
2017-02-20T04:10:24.642Z,1016.64
2017-02-20T04:11:33.727Z,1016.71
2017-02-20T04:12:43.950Z,1016.66
2017-02-20T04:13:53.016Z,1016.68
2017-02-20T04:15:02.850Z,1016.71
2017-02-20T04:16:12.301Z,1016.68
2017-02-20T04:17:22.144Z,1016.69
2017-02-20T04:18:31.981Z,1016.65
2017-02-20T04:19:41.067Z,1016.6
2017-02-20T04:20:50.899Z,1016.67
2017-02-20T04:21:59.974Z,1016.61
2017-02-20T04:23:09.040Z,1016.66
2017-02-20T04:24:18.871Z,1016.66
2017-02-20T04:25:28.712Z,1016.59
2017-02-20T04:26:38.566Z,1016.53
2017-02-20T04:27:48.789Z,1016.5
2017-02-20T04:28:57.482Z,1016.45
2017-02-20T04:30:06.923Z,1016.4
2017-02-20T04:31:15.633Z,1016.34
2017-02-20T04:32:24.335Z,1016.31
2017-02-20T04:33:33.014Z,1016.3
2017-02-20T04:34:42.850Z,1016.22
2017-02-20T04:35:52.717Z,1016.26
2017-02-20T04:37:01.410Z,1016.26
2017-02-20T04:38:10.129Z,1016.26
2017-02-20T04:39:19.192Z,1016.17
2017-02-20T04:40:27.867Z,1016.21
2017-02-20T04:41:37.312Z,1016.17
2017-02-20T04:42:46.783Z,1016.22
2017-02-20T04:43:56.248Z,1016.26
2017-02-20T04:45:06.453Z,1016.24
2017-02-20T04:46:15.514Z,1016.23
2017-02-20T04:47:24.973Z,1016.14
2017-02-20T04:48:34.828Z,1016.11
2017-02-20T04:49:44.654Z,1016.1
2017-02-20T04:50:53.737Z,1016.04
2017-02-20T04:52:03.182Z,1016.07
2017-02-20T04:53:12.629Z,1016.02
2017-02-20T04:54:22.093Z,1016.03
2017-02-20T04:55:31.161Z,1015.98
2017-02-20T04:56:40.261Z,1015.95
2017-02-20T04:57:49.328Z,1015.97
2017-02-20T04:58:58.777Z,1015.94
2017-02-20T05:00:08.242Z,1015.92
2017-02-20T05:01:17.308Z,1015.85
2017-02-20T05:02:26.385Z,1015.92
2017-02-20T05:03:35.827Z,1015.89
2017-02-20T05:04:44.914Z,1015.86
2017-02-20T05:05:53.619Z,1015.83
2017-02-20T05:07:02.700Z,1015.85
2017-02-20T05:08:12.151Z,1015.81
2017-02-20T05:09:21.209Z,1015.85
2017-02-20T05:10:30.284Z,1015.84
2017-02-20T05:11:39.369Z,1015.79
2017-02-20T05:12:48.824Z,1015.72
2017-02-20T05:13:58.292Z,1015.73
2017-02-20T05:15:07.363Z,1015.71
2017-02-20T05:16:16.424Z,1015.67
2017-02-20T05:17:25.119Z,1015.68
2017-02-20T05:18:34.185Z,1015.61
2017-02-20T05:19:44.026Z,1015.59
2017-02-20T05:20:53.120Z,1015.64
2017-02-20T05:22:02.576Z,1015.59
2017-02-20T05:23:11.648Z,1015.59
2017-02-20T05:24:20.711Z,1015.63
2017-02-20T05:25:30.181Z,1015.58
2017-02-20T05:26:39.254Z,1015.57
2017-02-20T05:27:48.334Z,1015.56
2017-02-20T05:28:58.196Z,1015.57
2017-02-20T05:30:07.660Z,1015.52
2017-02-20T05:31:16.734Z,1015.54
2017-02-20T05:32:25.799Z,1015.56
2017-02-20T05:33:34.890Z,1015.58
2017-02-20T05:34:43.589Z,1015.5
2017-02-20T05:35:52.267Z,1015.52
2017-02-20T05:37:02.134Z,1015.56
2017-02-20T05:38:10.821Z,1015.54
2017-02-20T05:39:20.279Z,1015.51
2017-02-20T05:40:28.965Z,1015.52
2017-02-20T05:41:38.412Z,1015.56
2017-02-20T05:42:48.232Z,1015.52
2017-02-20T05:43:57.712Z,1015.6
2017-02-20T05:45:07.167Z,1015.52
2017-02-20T05:46:15.857Z,1015.59
2017-02-20T05:47:25.313Z,1015.62
2017-02-20T05:48:34.780Z,1015.62
2017-02-20T05:49:44.233Z,1015.61
2017-02-20T05:50:53.311Z,1015.65
2017-02-20T05:52:02.018Z,1015.67
2017-02-20T05:53:11.475Z,1015.73
2017-02-20T05:54:20.542Z,1015.77
2017-02-20T05:55:29.649Z,1015.76
2017-02-20T05:56:39.124Z,1015.75
2017-02-20T05:57:48.575Z,1015.78
2017-02-20T05:58:58.399Z,1015.75
2017-02-20T06:00:07.874Z,1015.74
2017-02-20T06:01:16.938Z,1015.71
2017-02-20T06:02:26.386Z,1015.79
2017-02-20T06:03:35.880Z,1015.78
2017-02-20T06:04:45.329Z,1015.79
2017-02-20T06:05:54.398Z,1015.77
2017-02-20T06:07:03.860Z,1015.78
2017-02-20T06:08:12.925Z,1015.77
2017-02-20T06:09:22.399Z,1015.79
2017-02-20T06:10:31.087Z,1015.77
2017-02-20T06:11:40.148Z,1015.74
2017-02-20T06:12:49.619Z,1015.74
2017-02-20T06:13:59.447Z,1015.81
2017-02-20T06:15:08.962Z,1015.8
2017-02-20T06:16:18.053Z,1015.8
2017-02-20T06:17:27.147Z,1015.78
2017-02-20T06:18:36.224Z,1015.86
2017-02-20T06:19:44.924Z,1015.84
2017-02-20T06:20:54.763Z,1015.85
2017-02-20T06:22:03.846Z,1015.84
2017-02-20T06:23:12.531Z,1015.81
2017-02-20T06:24:21.601Z,1015.85
2017-02-20T06:25:30.662Z,1015.81
2017-02-20T06:26:39.743Z,1015.81
2017-02-20T06:27:48.819Z,1015.84
2017-02-20T06:28:57.900Z,1015.8
2017-02-20T06:30:06.971Z,1015.82
2017-02-20T06:31:16.052Z,1015.85
2017-02-20T06:32:25.131Z,1015.74
2017-02-20T06:33:33.822Z,1015.76
2017-02-20T06:34:42.891Z,1015.76
2017-02-20T06:35:52.347Z,1015.78
2017-02-20T06:37:01.817Z,1015.81
2017-02-20T06:38:12.061Z,1015.77
2017-02-20T06:39:21.501Z,1015.74
2017-02-20T06:40:30.206Z,1015.72
2017-02-20T06:41:39.291Z,1015.76
2017-02-20T06:42:48.363Z,1015.7
2017-02-20T06:43:58.201Z,1015.74
2017-02-20T06:45:07.647Z,1015.67
2017-02-20T06:46:16.710Z,1015.7
2017-02-20T06:47:25.782Z,1015.7
2017-02-20T06:48:35.251Z,1015.72
2017-02-20T06:49:44.336Z,1015.73
2017-02-20T06:50:53.798Z,1015.73
2017-02-20T06:52:02.886Z,1015.69
2017-02-20T06:53:12.726Z,1015.67
2017-02-20T06:54:21.813Z,1015.71
2017-02-20T06:55:30.893Z,1015.67
2017-02-20T06:56:40.343Z,1015.65
2017-02-20T06:57:49.818Z,1015.65
2017-02-20T06:58:58.504Z,1015.67
2017-02-20T07:00:07.205Z,1015.66
2017-02-20T07:01:17.037Z,1015.61
2017-02-20T07:02:26.498Z,1015.56
2017-02-20T07:03:35.560Z,1015.65
2017-02-20T07:04:44.642Z,1015.64
2017-02-20T07:05:54.467Z,1015.62
2017-02-20T07:07:03.932Z,1015.64
2017-02-20T07:08:13.383Z,1015.62
2017-02-20T07:09:22.871Z,1015.7
2017-02-20T07:10:31.955Z,1015.64
2017-02-20T07:11:41.404Z,1015.71
2017-02-20T07:12:51.612Z,1015.68
2017-02-20T07:14:01.056Z,1015.69
2017-02-20T07:15:09.763Z,1015.73
2017-02-20T07:16:18.825Z,1015.74
2017-02-20T07:17:28.277Z,1015.66
2017-02-20T07:18:38.128Z,1015.68
2017-02-20T07:19:47.964Z,1015.67
2017-02-20T07:20:57.040Z,1015.66
2017-02-20T07:22:06.117Z,1015.7
2017-02-20T07:23:15.211Z,1015.65
2017-02-20T07:24:24.679Z,1015.64
2017-02-20T07:25:34.560Z,1015.62
2017-02-20T07:26:44.388Z,1015.68
2017-02-20T07:27:53.852Z,1015.47
2017-02-20T07:29:03.728Z,1015.47
2017-02-20T07:30:13.172Z,1015.44
2017-02-20T07:31:22.636Z,1015.45
2017-02-20T07:32:31.704Z,1015.45
2017-02-20T07:33:41.157Z,1015.45
2017-02-20T07:34:50.612Z,1015.37
2017-02-20T07:36:00.068Z,1015.4
2017-02-20T07:37:09.144Z,1015.34
2017-02-20T07:38:19.004Z,1015.33
2017-02-20T07:39:28.460Z,1015.31
2017-02-20T07:40:37.537Z,1015.36
2017-02-20T07:41:46.997Z,1015.38
2017-02-20T07:42:56.478Z,1015.37
2017-02-20T07:44:06.329Z,1015.32
2017-02-20T07:45:16.153Z,1015.3
2017-02-20T07:46:25.989Z,1015.22
2017-02-20T07:47:35.063Z,1015.28
2017-02-20T07:48:44.527Z,1015.24
2017-02-20T07:49:53.982Z,1015.23
2017-02-20T07:51:03.449Z,1015.12
2017-02-20T07:52:12.533Z,1015.14
2017-02-20T07:53:21.975Z,1015.13
2017-02-20T07:54:30.651Z,1015.13
2017-02-20T07:55:39.340Z,1015.12
2017-02-20T07:56:48.401Z,1015.06
2017-02-20T07:57:57.459Z,1015.11
2017-02-20T07:59:07.692Z,1015.11
2017-02-20T08:00:17.167Z,1015.05
2017-02-20T08:01:27.042Z,1015.11
2017-02-20T08:02:36.486Z,1015.07
2017-02-20T08:03:45.971Z,1014.99
2017-02-20T08:04:55.815Z,1015.02
2017-02-20T08:06:05.296Z,1014.97
2017-02-20T08:07:14.782Z,1014.89
2017-02-20T08:08:23.853Z,1014.91
2017-02-20T08:09:33.297Z,1014.9
2017-02-20T08:10:42.758Z,1014.93
2017-02-20T08:11:52.617Z,1014.85
2017-02-20T08:13:02.064Z,1014.83
2017-02-20T08:14:11.140Z,1014.89
2017-02-20T08:15:20.624Z,1014.92
2017-02-20T08:16:30.077Z,1014.88
2017-02-20T08:17:39.155Z,1014.86
2017-02-20T08:18:48.998Z,1014.88
2017-02-20T08:19:58.081Z,1014.85
2017-02-20T08:21:07.149Z,1014.88
2017-02-20T08:22:16.611Z,1014.91
2017-02-20T08:23:26.833Z,1014.88
2017-02-20T08:24:36.662Z,1014.88
2017-02-20T08:25:46.121Z,1014.85
2017-02-20T08:26:55.576Z,1014.88
2017-02-20T08:28:05.036Z,1014.92
2017-02-20T08:29:14.115Z,1014.92
2017-02-20T08:30:22.808Z,1014.91
2017-02-20T08:31:32.648Z,1014.96
2017-02-20T08:32:42.103Z,1014.96
2017-02-20T08:33:51.934Z,1014.9
2017-02-20T08:35:01.386Z,1014.88
2017-02-20T08:36:10.845Z,1014.81
2017-02-20T08:37:20.356Z,1014.76
2017-02-20T08:38:30.611Z,1014.77
2017-02-20T08:39:39.309Z,1014.76
2017-02-20T08:40:48.029Z,1014.76
2017-02-20T08:41:57.484Z,1014.74
2017-02-20T08:43:06.958Z,1014.78
2017-02-20T08:44:16.034Z,1014.79
2017-02-20T08:45:25.875Z,1014.73
2017-02-20T08:46:34.935Z,1014.78
2017-02-20T08:47:44.012Z,1014.74
2017-02-20T08:48:53.463Z,1014.76
2017-02-20T08:50:03.300Z,1014.74
2017-02-20T08:51:12.372Z,1014.72
2017-02-20T08:52:21.439Z,1014.7
2017-02-20T08:53:30.509Z,1014.72
2017-02-20T08:54:39.587Z,1014.69
2017-02-20T08:55:49.030Z,1014.63
2017-02-20T08:56:58.108Z,1014.57
2017-02-20T08:58:07.273Z,1014.59
2017-02-20T08:59:16.819Z,1014.56
2017-02-20T09:00:26.285Z,1014.54
2017-02-20T09:01:35.070Z,1014.56
2017-02-20T09:02:44.989Z,1014.61
2017-02-20T09:03:54.104Z,1014.63
2017-02-20T09:05:03.255Z,1014.61
2017-02-20T09:06:12.276Z,1014.55
2017-02-20T09:07:21.742Z,1014.55
2017-02-20T09:08:31.477Z,1014.62
2017-02-20T09:09:41.394Z,1014.59
2017-02-20T09:10:51.511Z,1014.64
2017-02-20T09:12:02.854Z,1014.66
2017-02-20T09:13:12.230Z,1014.64
2017-02-20T09:14:23.581Z,1014.69
2017-02-20T09:15:33.223Z,1014.67
2017-02-20T09:16:42.486Z,1014.64
2017-02-20T09:17:52.137Z,1014.62
2017-02-20T09:19:01.732Z,1014.64
2017-02-20T09:20:10.621Z,1014.63
2017-02-20T09:21:20.295Z,1014.59
2017-02-20T09:22:29.869Z,1014.66
2017-02-20T09:23:39.671Z,1014.66
2017-02-20T09:24:49.205Z,1014.67
2017-02-20T09:25:58.397Z,1014.7
2017-02-20T09:27:07.444Z,1014.63
2017-02-20T09:28:16.882Z,1014.65
2017-02-20T09:29:26.272Z,1014.62
2017-02-20T09:30:35.707Z,1014.72
2017-02-20T09:31:45.255Z,1014.59
2017-02-20T09:32:55.108Z,1014.66
2017-02-20T09:34:05.283Z,1014.64
2017-02-20T09:35:15.247Z,1014.62
2017-02-20T09:36:24.443Z,1014.63
2017-02-20T09:37:34.013Z,1014.54
2017-02-20T09:38:42.775Z,1014.59
2017-02-20T09:39:52.660Z,1014.59
2017-02-20T09:41:01.541Z,1014.61
2017-02-20T09:42:11.647Z,1014.59
2017-02-20T09:43:21.294Z,1014.61
2017-02-20T09:44:30.588Z,1014.53
2017-02-20T09:45:40.038Z,1014.45
2017-02-20T09:46:49.049Z,1014.48
2017-02-20T09:47:58.482Z,1014.53
2017-02-20T09:49:07.378Z,1014.55
2017-02-20T09:50:17.113Z,1014.58
2017-02-20T09:51:27.060Z,1014.57
2017-02-20T09:52:36.920Z,1014.58
2017-02-20T09:53:46.102Z,1014.64
2017-02-20T09:54:55.666Z,1014.62
2017-02-20T09:56:04.828Z,1014.65
2017-02-20T09:57:13.957Z,1014.68
2017-02-20T09:58:23.377Z,1014.67
2017-02-20T09:59:32.956Z,1014.6
2017-02-20T10:00:41.782Z,1014.66
2017-02-20T10:01:51.735Z,1014.54
2017-02-20T10:03:01.651Z,1014.54
2017-02-20T10:04:11.111Z,1014.55
2017-02-20T10:05:20.553Z,1014.54
2017-02-20T10:06:30.397Z,1014.55
2017-02-20T10:07:39.846Z,1014.55
2017-02-20T10:08:49.319Z,1014.57
2017-02-20T10:09:58.392Z,1014.55
2017-02-20T10:11:07.503Z,1014.53
2017-02-20T10:12:16.734Z,1014.66
2017-02-20T10:13:26.215Z,1014.59
2017-02-20T10:14:35.298Z,1014.6
2017-02-20T10:15:43.995Z,1014.61
2017-02-20T10:16:52.712Z,1014.66
2017-02-20T10:18:01.840Z,1014.64
2017-02-20T10:19:10.529Z,1014.55
2017-02-20T10:20:19.413Z,1014.51
2017-02-20T10:21:28.865Z,1014.51
2017-02-20T10:22:37.560Z,1014.58
2017-02-20T10:23:46.259Z,1014.49
2017-02-20T10:24:55.705Z,1014.47
2017-02-20T10:26:05.151Z,1014.44
2017-02-20T10:27:14.217Z,1014.39
2017-02-20T10:28:23.281Z,1014.39
2017-02-20T10:29:32.759Z,1014.3
2017-02-20T10:30:42.662Z,1014.33
2017-02-20T10:31:51.744Z,1014.35
2017-02-20T10:33:01.583Z,1014.27
2017-02-20T10:34:10.672Z,1014.35
2017-02-20T10:35:19.856Z,1014.29
2017-02-20T10:36:28.939Z,1014.33
2017-02-20T10:37:38.446Z,1014.31
2017-02-20T10:38:47.514Z,1014.32
2017-02-20T10:39:56.615Z,1014.43
2017-02-20T10:41:05.688Z,1014.41
2017-02-20T10:42:14.908Z,1014.38
2017-02-20T10:43:23.636Z,1014.41
2017-02-20T10:44:33.144Z,1014.41
2017-02-20T10:45:42.606Z,1014.36
2017-02-20T10:46:52.070Z,1014.42
2017-02-20T10:48:01.536Z,1014.44
2017-02-20T10:49:10.259Z,1014.41
2017-02-20T10:50:19.348Z,1014.37
2017-02-20T10:51:28.413Z,1014.38
2017-02-20T10:52:37.485Z,1014.35
2017-02-20T10:53:47.334Z,1014.34
2017-02-20T10:54:56.411Z,1014.34
2017-02-20T10:56:05.498Z,1014.31
2017-02-20T10:57:14.583Z,1014.29
2017-02-20T10:58:24.040Z,1014.25
2017-02-20T10:59:33.622Z,1014.32
2017-02-20T11:00:43.085Z,1014.33
2017-02-20T11:01:52.923Z,1014.3
2017-02-20T11:03:02.016Z,1014.26
2017-02-20T11:04:11.113Z,1014.22
2017-02-20T11:05:19.798Z,1014.21
2017-02-20T11:06:29.686Z,1014.24
2017-02-20T11:07:39.961Z,1014.21
2017-02-20T11:08:49.048Z,1014.19
2017-02-20T11:09:58.143Z,1014.22
2017-02-20T11:11:08.006Z,1014.2
2017-02-20T11:12:17.084Z,1014.19
2017-02-20T11:13:26.904Z,1014.18
2017-02-20T11:14:35.974Z,1014.17
2017-02-20T11:15:45.441Z,1014.14
2017-02-20T11:16:55.307Z,1014.15
2017-02-20T11:18:04.406Z,1014.07
2017-02-20T11:19:13.160Z,1014.09
2017-02-20T11:20:22.635Z,1014.17
2017-02-20T11:21:32.483Z,1014.07
2017-02-20T11:22:41.938Z,1014.03
2017-02-20T11:23:51.379Z,1014.02
2017-02-20T11:25:00.439Z,1014.05
2017-02-20T11:26:09.122Z,1013.98
2017-02-20T11:27:18.224Z,1013.99
2017-02-20T11:28:27.374Z,1013.97
2017-02-20T11:29:36.857Z,1013.96
2017-02-20T11:30:45.930Z,1013.95
2017-02-20T11:31:55.405Z,1013.88
2017-02-20T11:33:04.092Z,1013.83
2017-02-20T11:34:13.168Z,1013.85
2017-02-20T11:35:21.885Z,1013.89
2017-02-20T11:36:31.347Z,1013.94
2017-02-20T11:37:40.433Z,1013.88
2017-02-20T11:38:49.957Z,1013.83
2017-02-20T11:39:59.036Z,1013.84
2017-02-20T11:41:07.745Z,1013.89
2017-02-20T11:42:16.432Z,1013.87
2017-02-20T11:43:25.113Z,1013.83
2017-02-20T11:44:34.584Z,1013.84
2017-02-20T11:45:43.650Z,1013.88
2017-02-20T11:46:52.358Z,1013.84
2017-02-20T11:48:01.818Z,1013.85
2017-02-20T11:49:10.894Z,1013.86
2017-02-20T11:50:20.739Z,1013.81
2017-02-20T11:51:30.587Z,1013.83
2017-02-20T11:52:39.682Z,1013.77
2017-02-20T11:53:48.377Z,1013.76
2017-02-20T11:54:58.220Z,1013.75
2017-02-20T11:56:08.065Z,1013.72
2017-02-20T11:57:17.515Z,1013.66
2017-02-20T11:58:26.980Z,1013.67
2017-02-20T11:59:35.670Z,1013.58
2017-02-20T12:00:45.129Z,1013.55
2017-02-20T12:01:54.197Z,1013.6
2017-02-20T12:03:04.072Z,1013.64
2017-02-20T12:04:13.134Z,1013.56
2017-02-20T12:05:21.836Z,1013.63
2017-02-20T12:06:31.297Z,1013.57
2017-02-20T12:07:40.392Z,1013.6
2017-02-20T12:08:50.235Z,1013.49
2017-02-20T12:09:59.714Z,1013.53
2017-02-20T12:11:08.796Z,1013.51
2017-02-20T12:12:17.866Z,1013.43
2017-02-20T12:13:26.938Z,1013.46
2017-02-20T12:14:36.009Z,1013.4
2017-02-20T12:15:45.089Z,1013.37
2017-02-20T12:16:54.542Z,1013.42
2017-02-20T12:18:04.062Z,1013.38
2017-02-20T12:19:13.126Z,1013.42
2017-02-20T12:20:22.600Z,1013.44
2017-02-20T12:21:31.672Z,1013.35
2017-02-20T12:22:40.745Z,1013.46
2017-02-20T12:23:50.619Z,1013.42
2017-02-20T12:24:59.702Z,1013.41
2017-02-20T12:26:09.529Z,1013.42
2017-02-20T12:27:18.630Z,1013.44
2017-02-20T12:28:28.077Z,1013.43
2017-02-20T12:29:37.916Z,1013.4
2017-02-20T12:30:47.744Z,1013.39
2017-02-20T12:31:56.473Z,1013.33
2017-02-20T12:33:05.541Z,1013.33
2017-02-20T12:34:14.219Z,1013.33
2017-02-20T12:35:23.046Z,1013.26
2017-02-20T12:36:32.127Z,1013.34
2017-02-20T12:37:41.584Z,1013.26
2017-02-20T12:38:50.663Z,1013.34
2017-02-20T12:40:00.119Z,1013.2
2017-02-20T12:41:09.633Z,1013.25
2017-02-20T12:42:19.461Z,1013.29
2017-02-20T12:43:29.314Z,1013.24
2017-02-20T12:44:38.765Z,1013.19
2017-02-20T12:45:47.847Z,1013.21
2017-02-20T12:46:56.534Z,1013.25
2017-02-20T12:48:05.225Z,1013.25
2017-02-20T12:49:14.308Z,1013.24
2017-02-20T12:50:23.382Z,1013.19
2017-02-20T12:51:33.240Z,1013.16
2017-02-20T12:52:42.689Z,1013.16
2017-02-20T12:53:51.409Z,1013.11
2017-02-20T12:55:00.871Z,1013.1
2017-02-20T12:56:09.962Z,1013.04
2017-02-20T12:57:19.045Z,1013.1
2017-02-20T12:58:28.504Z,1013.08
2017-02-20T12:59:37.971Z,1012.99
2017-02-20T13:00:47.030Z,1013.05
2017-02-20T13:01:56.107Z,1013.04
2017-02-20T13:03:05.952Z,1012.94
2017-02-20T13:04:15.405Z,1013.02
2017-02-20T13:05:24.882Z,1013.08
2017-02-20T13:06:33.586Z,1013
2017-02-20T13:07:42.291Z,1013.04
2017-02-20T13:08:51.363Z,1013.12
2017-02-20T13:10:00.431Z,1013.09
2017-02-20T13:11:09.916Z,1013.07
2017-02-20T13:12:19.777Z,1012.98
2017-02-20T13:13:29.220Z,1013.01
2017-02-20T13:14:39.060Z,1012.95
2017-02-20T13:15:48.928Z,1012.87
2017-02-20T13:16:58.405Z,1012.78
2017-02-20T13:18:07.486Z,1012.58
2017-02-20T13:19:16.954Z,1012.53
2017-02-20T13:20:26.411Z,1012.5
2017-02-20T13:21:35.541Z,1012.51
2017-02-20T13:22:45.000Z,1012.54
2017-02-20T13:23:54.829Z,1012.64
2017-02-20T13:25:04.674Z,1012.61
2017-02-20T13:26:13.741Z,1012.72
2017-02-20T13:27:22.450Z,1012.67
2017-02-20T13:28:31.556Z,1012.73
2017-02-20T13:29:40.252Z,1012.7
2017-02-20T13:30:49.326Z,1012.73
2017-02-20T13:31:58.783Z,1012.68
2017-02-20T13:33:07.864Z,1012.71
2017-02-20T13:34:16.942Z,1012.61
2017-02-20T13:35:26.019Z,1012.6
2017-02-20T13:36:34.711Z,1012.55
2017-02-20T13:37:44.156Z,1012.5
2017-02-20T13:38:53.226Z,1012.57
2017-02-20T13:40:01.930Z,1012.57
2017-02-20T13:41:11.774Z,1012.59
2017-02-20T13:42:21.219Z,1012.55
2017-02-20T13:43:29.913Z,1012.6
2017-02-20T13:44:39.365Z,1012.53
2017-02-20T13:45:48.841Z,1012.6
2017-02-20T13:46:58.696Z,1012.53
2017-02-20T13:48:07.762Z,1012.53
2017-02-20T13:49:16.850Z,1012.62
2017-02-20T13:50:25.574Z,1012.62
2017-02-20T13:51:35.042Z,1012.52
2017-02-20T13:52:44.122Z,1012.56
2017-02-20T13:53:53.972Z,1012.49
2017-02-20T13:55:03.418Z,1012.61
2017-02-20T13:56:13.644Z,1012.67
2017-02-20T13:57:23.091Z,1012.6
2017-02-20T13:58:32.167Z,1012.61
2017-02-20T13:59:41.613Z,1012.58
2017-02-20T14:00:50.682Z,1012.54